Eastern Oregon Regional At Pendleton Airport
KPDT : rendu visible

Aérodrome :











RETROUVEZ-NOUS SUR...

 
LOGIN :

S'inscrire | Disclaimer

   EN    FR    IT 

 









Légende :    VFR   VFR Marginal   IFR   IFR Intensif   IFR Très Intensif
Visi : 
Plafond : 
>= 8 km
>= 3000ft
5 à 8 km
1000 à 3000 ft
1500m à 5 km
500 à 1000 ft
800 à 1500m
200 à 500 ft
< 800m
< 200 ft
Symboles :   Orages  Brouillard  Fortes neiges  Fortes précipitations  Vent > 20 kt







- Altitude de l'aérodrome : 1497 ft


KPDT - Eastern Oregon Regional At Pendleton

DERNIER METAR :
  • 190153Z 32005KT 8SM CLR 16/06 A2987 RMK AO2 SLP105 T01610061

METARs EXPIRÉS :
  • 190053Z 33007KT 10SM FEW060 SCT120 19/05 A2985 RMK AO2 SLP098 T01940050
  • 182353Z 32008KT 10SM SCT060 21/06 A2984 RMK AO2 SLP095 60000 T02060056 10217 20172 53000

TAF KPDT
Valide du 19 à 00h jusqu'au 20 à 00h UTC


182320Z 1900/1924 VRB06KT P6SM -SHRA SCT040 BKN060
TEMPO 1900/1903 6SM -TSRA BKN050CB
FM190500 14006KT P6SM VCSH SCT050 BKN070
FM190700 15006KT P6SM SCT040 BKN060
FM191800 28008KT P6SM SCT050 BKN070
Pas de NOTAMs connus pour ce terrain.



MET'MAP, la Météo Aéronautique d'un coup d'oeil ! - Copyright ORBIFLY Décembre 2007 - Disclaimer

ORBIFLY MET'MAP TEAM :

Programmation & Développement : Alexandra Zaïnal
Conception & Développement : Baudouin d'Aumeries
Co-Programmation & Développement : Marc-Olivier Méhu
Soutien technique & logistique : Manuel Goepfert

Contact : metmap@orbifly.com




SOURCES & CREDITS :

   NOAA       Earth
Advisory